<?xml version="1.0" encoding="UTF-8"?>
<gpx version="1.1" creator="https://www.www-youtrack-es.amenigma.com" xsi:schemaLocation="http://www.topografix.com/GPX/1/1 http://www.topografix.com/GPX/1/1/gpx.xsd http://www.garmin.com/xmlschemas/GpxExtensions/v3 http://www.garmin.com/xmlschemas/GpxExtensionsv3.xsd http://www.garmin.com/xmlschemas/TrackPointExtension/v1 http://www.garmin.com/xmlschemas/TrackPointExtensionv1.xsd" xmlns:gpxtpx="http://www.garmin.com/xmlschemas/TrackPointExtension/v1" xmlns:gpxx="http://www.garmin.com/xmlschemas/GpxExtensions/v3" xmlns:xsi="http://www.w3.org/2001/XMLSchema-instance">
  <metadata>
    <link href="https://www.www-youtrack-es.amenigma.com">
      <text>YouTrack.es</text>
    </link>
    <time>2026-08-31T04:54:53Z</time>
  </metadata>
  <wpt lat="40.7909" lon="-3.87675">
    <ele>1963</ele>
    <time>2019-08-20T14:11:25Z</time>
    <name>Collado de Matasanos</name>
  </wpt>
  <wpt lat="40.7892" lon="-3.87739">
    <ele>2012</ele>
    <time>2019-08-20T14:11:25Z</time>
    <name>3ª Torre de la Pedriza</name>
  </wpt>
  <wpt lat="40.9024" lon="-3.87803">
    <ele>1144</ele>
    <time>2019-08-20T14:11:25Z</time>
    <name>Fuente</name>
  </wpt>
  <wpt lat="40.806" lon="-3.88288">
    <ele>2236</ele>
    <time>2019-08-20T14:11:25Z</time>
    <name>Asómate de Hoyos</name>
  </wpt>
  <wpt lat="40.8131" lon="-3.88297">
    <ele>2050</ele>
    <time>2019-08-20T14:11:25Z</time>
    <name>Tramo campo a través </name>
  </wpt>
  <wpt lat="40.7957" lon="-3.8757">
    <ele>2099</ele>
    <time>2019-08-20T14:11:25Z</time>
    <name>Peña Lindera</name>
  </wpt>
  <wpt lat="40.8261" lon="-3.8752">
    <ele>1746</ele>
    <time>2019-08-20T14:11:25Z</time>
    <name>Desvío del cortafuegos</name>
  </wpt>
  <wpt lat="40.8495" lon="-3.86037">
    <ele>1353</ele>
    <time>2019-08-20T14:11:25Z</time>
    <name>Cascada del Purgatorio</name>
  </wpt>
  <wpt lat="40.8501" lon="-3.86101">
    <ele>1350</ele>
    <time>2019-08-20T14:11:25Z</time>
    <name>Desvío ladera arriba (sendero poco marcado)</name>
  </wpt>
  <wpt lat="40.8458" lon="-3.86218">
    <ele>1419</ele>
    <time>2019-08-20T14:11:25Z</time>
    <name>Cruce Arroyo del Aguilón</name>
  </wpt>
  <wpt lat="40.7885" lon="-3.8749">
    <ele>1949</ele>
    <time>2019-08-20T14:11:25Z</time>
    <name>Vivac</name>
  </wpt>
  <wpt lat="40.7909" lon="-3.87675">
    <ele>1963</ele>
    <time>2019-08-20T14:11:25Z</time>
    <name>Collado de Matasanos</name>
  </wpt>
  <wpt lat="40.7892" lon="-3.87739">
    <ele>2012</ele>
    <time>2019-08-20T14:11:25Z</time>
    <name>3ª Torre de la Pedriza</name>
  </wpt>
  <wpt lat="40.9024" lon="-3.87803">
    <ele>1144</ele>
    <time>2019-08-20T14:11:25Z</time>
    <name>Fuente</name>
  </wpt>
  <wpt lat="40.806" lon="-3.88288">
    <ele>2236</ele>
    <time>2019-08-20T14:11:25Z</time>
    <name>Asómate de Hoyos</name>
  </wpt>
  <wpt lat="40.8131" lon="-3.88297">
    <ele>2050</ele>
    <time>2019-08-20T14:11:25Z</time>
    <name>Tramo campo a través </name>
  </wpt>
  <wpt lat="40.7957" lon="-3.8757">
    <ele>2099</ele>
    <time>2019-08-20T14:11:25Z</time>
    <name>Peña Lindera</name>
  </wpt>
  <wpt lat="40.8261" lon="-3.8752">
    <ele>1746</ele>
    <time>2019-08-20T14:11:25Z</time>
    <name>Desvío del cortafuegos</name>
  </wpt>
  <wpt lat="40.8495" lon="-3.86037">
    <ele>1353</ele>
    <time>2019-08-20T14:11:25Z</time>
    <name>Cascada del Purgatorio</name>
  </wpt>
  <wpt lat="40.8501" lon="-3.86101">
    <ele>1350</ele>
    <time>2019-08-20T14:11:25Z</time>
    <name>Desvío ladera arriba (sendero poco marcado)</name>
  </wpt>
  <wpt lat="40.8458" lon="-3.86218">
    <ele>1419</ele>
    <time>2019-08-20T14:11:25Z</time>
    <name>Cruce Arroyo del Aguilón</name>
  </wpt>
  <wpt lat="40.7885" lon="-3.8749">
    <ele>1949</ele>
    <time>2019-08-20T14:11:25Z</time>
    <name>Vivac</name>
  </wpt>
  <wpt lat="40.7909" lon="-3.87675">
    <ele>1963</ele>
    <time>2019-08-20T14:11:25Z</time>
    <name>Collado de Matasanos</name>
  </wpt>
  <wpt lat="40.7892" lon="-3.87739">
    <ele>2012</ele>
    <time>2019-08-20T14:11:25Z</time>
    <name>3ª Torre de la Pedriza</name>
  </wpt>
  <wpt lat="40.9024" lon="-3.87803">
    <ele>1144</ele>
    <time>2019-08-20T14:11:25Z</time>
    <name>Fuente</name>
  </wpt>
  <wpt lat="40.806" lon="-3.88288">
    <ele>2236</ele>
    <time>2019-08-20T14:11:25Z</time>
    <name>Asómate de Hoyos</name>
  </wpt>
  <wpt lat="40.8131" lon="-3.88297">
    <ele>2050</ele>
    <time>2019-08-20T14:11:25Z</time>
    <name>Tramo campo a través </name>
  </wpt>
  <wpt lat="40.7957" lon="-3.8757">
    <ele>2099</ele>
    <time>2019-08-20T14:11:25Z</time>
    <name>Peña Lindera</name>
  </wpt>
  <wpt lat="40.8261" lon="-3.8752">
    <ele>1746</ele>
    <time>2019-08-20T14:11:25Z</time>
    <name>Desvío del cortafuegos</name>
  </wpt>
  <wpt lat="40.8495" lon="-3.86037">
    <ele>1353</ele>
    <time>2019-08-20T14:11:25Z</time>
    <name>Cascada del Purgatorio</name>
  </wpt>
  <wpt lat="40.8501" lon="-3.86101">
    <ele>1350</ele>
    <time>2019-08-20T14:11:25Z</time>
    <name>Desvío ladera arriba (sendero poco marcado)</name>
  </wpt>
  <wpt lat="40.8458" lon="-3.86218">
    <ele>1419</ele>
    <time>2019-08-20T14:11:25Z</time>
    <name>Cruce Arroyo del Aguilón</name>
  </wpt>
  <wpt lat="40.7885" lon="-3.8749">
    <ele>1949</ele>
    <time>2019-08-20T14:11:25Z</time>
    <name>Vivac</name>
  </wpt>
  <trk>
    <src>https://www.www-youtrack-es.amenigma.com</src>
    <link href="https://www.www-youtrack-es.amenigma.com/ruta/24266-d4">
      <text>YouTrack.es</text>
    </link>
    <trkseg>
      <trkpt lat="40.776804" lon="-3.882105">
        <ele>1438.696</ele>
        <time>2013-11-10T09:53:17Z</time>
      </trkpt>
      <trkpt lat="40.776796" lon="-3.882173">
        <ele>1438.691</ele>
        <time>2013-11-10T09:53:39Z</time>
      </trkpt>
      <trkpt lat="40.77676" lon="-3.882252">
        <ele>1438.649</ele>
        <time>2013-11-10T09:53:41Z</time>
      </trkpt>
      <trkpt lat="40.776703" lon="-3.882471">
        <ele>1438.611</ele>
        <time>2013-11-10T09:53:48Z</time>
      </trkpt>
      <trkpt lat="40.776618" lon="-3.882584">
        <ele>1438.617</ele>
        <time>2013-11-10T09:53:53Z</time>
      </trkpt>
      <trkpt lat="40.77655" lon="-3.882657">
        <ele>1438.687</ele>
        <time>2013-11-10T09:53:56Z</time>
      </trkpt>
      <trkpt lat="40.77648" lon="-3.882753">
        <ele>1438.615</ele>
        <time>2013-11-10T09:54:00Z</time>
      </trkpt>
      <trkpt lat="40.776424" lon="-3.882846">
        <ele>1438.607</ele>
        <time>2013-11-10T09:54:03Z</time>
      </trkpt>
      <trkpt lat="40.776383" lon="-3.882931">
        <ele>1438.686</ele>
        <time>2013-11-10T09:54:06Z</time>
      </trkpt>
      <trkpt lat="40.776375" lon="-3.883029">
        <ele>1438.617</ele>
        <time>2013-11-10T09:54:11Z</time>
      </trkpt>
      <trkpt lat="40.776356" lon="-3.883101">
        <ele>1438.652</ele>
        <time>2013-11-10T09:54:15Z</time>
      </trkpt>
      <trkpt lat="40.776349" lon="-3.88313">
        <ele>1438.625</ele>
        <time>2013-11-10T09:54:16Z</time>
      </trkpt>
      <trkpt lat="40.776329" lon="-3.883192">
        <ele>1438.62</ele>
        <time>2013-11-10T09:54:18Z</time>
      </trkpt>
      <trkpt lat="40.776295" lon="-3.883348">
        <ele>1438.848</ele>
        <time>2013-11-10T09:54:24Z</time>
      </trkpt>
      <trkpt lat="40.776296" lon="-3.883437">
        <ele>1439.49</ele>
        <time>2013-11-10T09:54:28Z</time>
      </trkpt>
      <trkpt lat="40.776306" lon="-3.883481">
        <ele>1439.617</ele>
        <time>2013-11-10T09:54:30Z</time>
      </trkpt>
      <trkpt lat="40.776304" lon="-3.883606">
        <ele>1440.087</ele>
        <time>2013-11-10T09:54:35Z</time>
      </trkpt>
      <trkpt lat="40.776298" lon="-3.883629">
        <ele>1440.015</ele>
        <time>2013-11-10T09:54:36Z</time>
      </trkpt>
      <trkpt lat="40.776289" lon="-3.883669">
        <ele>1440.207</ele>
        <time>2013-11-10T09:54:38Z</time>
      </trkpt>
      <trkpt lat="40.776263" lon="-3.883774">
        <ele>1440.456</ele>
        <time>2013-11-10T09:54:44Z</time>
      </trkpt>
      <trkpt lat="40.776237" lon="-3.883809">
        <ele>1440.497</ele>
        <time>2013-11-10T09:54:46Z</time>
      </trkpt>
      <trkpt lat="40.77619" lon="-3.883866">
        <ele>1440.452</ele>
        <time>2013-11-10T09:54:51Z</time>
      </trkpt>
      <trkpt lat="40.776147" lon="-3.88395">
        <ele>1440.655</ele>
        <time>2013-11-10T09:54:57Z</time>
      </trkpt>
      <trkpt lat="40.776116" lon="-3.884023">
        <ele>1440.62</ele>
        <time>2013-11-10T09:55:01Z</time>
      </trkpt>
      <trkpt lat="40.776114" lon="-3.884041">
        <ele>1440.668</ele>
        <time>2013-11-10T09:55:02Z</time>
      </trkpt>
      <trkpt lat="40.776082" lon="-3.884153">
        <ele>1440.62</ele>
        <time>2013-11-10T09:55:08Z</time>
      </trkpt>
      <trkpt lat="40.776076" lon="-3.884199">
        <ele>1440.695</ele>
        <time>2013-11-10T09:55:10Z</time>
      </trkpt>
      <trkpt lat="40.776042" lon="-3.884312">
        <ele>1440.649</ele>
        <time>2013-11-10T09:55:15Z</time>
      </trkpt>
      <trkpt lat="40.775961" lon="-3.884425">
        <ele>1440.623</ele>
        <time>2013-11-10T09:55:21Z</time>
      </trkpt>
      <trkpt lat="40.775956" lon="-3.884452">
        <ele>1440.607</ele>
        <time>2013-11-10T09:55:22Z</time>
      </trkpt>
      <trkpt lat="40.775954" lon="-3.884475">
        <ele>1440.634</ele>
        <time>2013-11-10T09:55:23Z</time>
      </trkpt>
      <trkpt lat="40.77592" lon="-3.884525">
        <ele>1440.845</ele>
        <time>2013-11-10T09:55:25Z</time>
      </trkpt>
      <trkpt lat="40.775883" lon="-3.884667">
        <ele>1441.65</ele>
        <time>2013-11-10T09:55:31Z</time>
      </trkpt>
      <trkpt lat="40.77585" lon="-3.884743">
        <ele>1441.843</ele>
        <time>2013-11-10T09:55:34Z</time>
      </trkpt>
      <trkpt lat="40.775849" lon="-3.884782">
        <ele>1442.048</ele>
        <time>2013-11-10T09:55:37Z</time>
      </trkpt>
      <trkpt lat="40.77585" lon="-3.884881">
        <ele>1442.276</ele>
        <time>2013-11-10T09:55:41Z</time>
      </trkpt>
      <trkpt lat="40.775833" lon="-3.884957">
        <ele>1442.498</ele>
        <time>2013-11-10T09:55:44Z</time>
      </trkpt>
      <trkpt lat="40.775776" lon="-3.885078">
        <ele>1443.286</ele>
        <time>2013-11-10T09:55:49Z</time>
      </trkpt>
      <trkpt lat="40.775767" lon="-3.885096">
        <ele>1443.46</ele>
        <time>2013-11-10T09:55:50Z</time>
      </trkpt>
      <trkpt lat="40.775703" lon="-3.885223">
        <ele>1444.026</ele>
        <time>2013-11-10T09:55:57Z</time>
      </trkpt>
      <trkpt lat="40.775682" lon="-3.88531">
        <ele>1444.407</ele>
        <time>2013-11-10T09:56:01Z</time>
      </trkpt>
      <trkpt lat="40.775677" lon="-3.885331">
        <ele>1444.813</ele>
        <time>2013-11-10T09:56:03Z</time>
      </trkpt>
      <trkpt lat="40.77564" lon="-3.885406">
        <ele>1445.624</ele>
        <time>2013-11-10T09:56:07Z</time>
      </trkpt>
      <trkpt lat="40.775634" lon="-3.885439">
        <ele>1445.839</ele>
        <time>2013-11-10T09:56:09Z</time>
      </trkpt>
      <trkpt lat="40.775625" lon="-3.885493">
        <ele>1446.612</ele>
        <time>2013-11-10T09:56:12Z</time>
      </trkpt>
      <trkpt lat="40.775563" lon="-3.885555">
        <ele>1447.887</ele>
        <time>2013-11-10T09:56:17Z</time>
      </trkpt>
      <trkpt lat="40.775533" lon="-3.885595">
        <ele>1448.625</ele>
        <time>2013-11-10T09:56:19Z</time>
      </trkpt>
      <trkpt lat="40.775557" lon="-3.885681">
        <ele>1449.817</ele>
        <time>2013-11-10T09:56:24Z</time>
      </trkpt>
      <trkpt lat="40.775536" lon="-3.885733">
        <ele>1450.859</ele>
        <time>2013-11-10T09:56:27Z</time>
      </trkpt>
      <trkpt lat="40.77548" lon="-3.885768">
        <ele>1451.803</ele>
        <time>2013-11-10T09:56:31Z</time>
      </trkpt>
      <trkpt lat="40.775469" lon="-3.88579">
        <ele>1452.623</ele>
        <time>2013-11-10T09:56:33Z</time>
      </trkpt>
      <trkpt lat="40.775415" lon="-3.885821">
        <ele>1453.807</ele>
        <time>2013-11-10T09:56:38Z</time>
      </trkpt>
      <trkpt lat="40.775399" lon="-3.885844">
        <ele>1454.27</ele>
        <time>2013-11-10T09:56:40Z</time>
      </trkpt>
      <trkpt lat="40.775362" lon="-3.885907">
        <ele>1455.831</ele>
        <time>2013-11-10T09:56:46Z</time>
      </trkpt>
      <trkpt lat="40.775356" lon="-3.885917">
        <ele>1456.086</ele>
        <time>2013-11-10T09:56:47Z</time>
      </trkpt>
      <trkpt lat="40.775337" lon="-3.885966">
        <ele>1457.259</ele>
        <time>2013-11-10T09:56:51Z</time>
      </trkpt>
      <trkpt lat="40.775331" lon="-3.885976">
        <ele>1457.454</ele>
        <time>2013-11-10T09:56:52Z</time>
      </trkpt>
      <trkpt lat="40.775321" lon="-3.885993">
        <ele>1457.852</ele>
        <time>2013-11-10T09:56:53Z</time>
      </trkpt>
      <trkpt lat="40.775288" lon="-3.886031">
        <ele>1458.614</ele>
        <time>2013-11-10T09:56:59Z</time>
      </trkpt>
      <trkpt lat="40.775246" lon="-3.886145">
        <ele>1460.499</ele>
        <time>2013-11-10T09:57:07Z</time>
      </trkpt>
      <trkpt lat="40.775243" lon="-3.886155">
        <ele>1460.607</ele>
        <time>2013-11-10T09:57:08Z</time>
      </trkpt>
      <trkpt lat="40.775237" lon="-3.886165">
        <ele>1460.627</ele>
        <time>2013-11-10T09:57:09Z</time>
      </trkpt>
      <trkpt lat="40.775203" lon="-3.886212">
        <ele>1461.207</ele>
        <time>2013-11-10T09:57:14Z</time>
      </trkpt>
      <trkpt lat="40.775199" lon="-3.886218">
        <ele>1461.684</ele>
        <time>2013-11-10T09:57:15Z</time>
      </trkpt>
      <trkpt lat="40.775196" lon="-3.886228">
        <ele>1461.885</ele>
        <time>2013-11-10T09:57:16Z</time>
      </trkpt>
      <trkpt lat="40.775176" lon="-3.886304">
        <ele>1462.84</ele>
        <time>2013-11-10T09:57:23Z</time>
      </trkpt>
      <trkpt lat="40.775174" lon="-3.886315">
        <ele>1463.023</ele>
        <time>2013-11-10T09:57:24Z</time>
      </trkpt>
      <trkpt lat="40.77517" lon="-3.886337">
        <ele>1463.698</ele>
        <time>2013-11-10T09:57:26Z</time>
      </trkpt>
      <trkpt lat="40.775176" lon="-3.886365">
        <ele>1464.296</ele>
        <time>2013-11-10T09:57:29Z</time>
      </trkpt>
      <trkpt lat="40.775168" lon="-3.886407">
        <ele>1464.888</ele>
        <time>2013-11-10T09:57:33Z</time>
      </trkpt>
      <trkpt lat="40.775161" lon="-3.886431">
        <ele>1465.064</ele>
        <time>2013-11-10T09:57:35Z</time>
      </trkpt>
      <trkpt lat="40.77514" lon="-3.886494">
        <ele>1465.806</ele>
        <time>2013-11-10T09:57:40Z</time>
      </trkpt>
      <trkpt lat="40.775138" lon="-3.88652">
        <ele>1466.216</ele>
        <time>2013-11-10T09:57:42Z</time>
      </trkpt>
      <trkpt lat="40.775138" lon="-3.886568">
        <ele>1466.807</ele>
        <time>2013-11-10T09:57:46Z</time>
      </trkpt>
      <trkpt lat="40.775128" lon="-3.886646">
        <ele>1467.621</ele>
        <time>2013-11-10T09:57:52Z</time>
      </trkpt>
      <trkpt lat="40.775127" lon="-3.886658">
        <ele>1467.822</ele>
        <time>2013-11-10T09:57:53Z</time>
      </trkpt>
      <trkpt lat="40.775123" lon="-3.886702">
        <ele>1468.427</ele>
        <time>2013-11-10T09:57:56Z</time>
      </trkpt>
      <trkpt lat="40.775108" lon="-3.886761">
        <ele>1469.01</ele>
        <time>2013-11-10T09:58:00Z</time>
      </trkpt>
      <trkpt lat="40.775102" lon="-3.886811">
        <ele>1470.295</ele>
        <time>2013-11-10T09:58:05Z</time>
      </trkpt>
      <trkpt lat="40.775108" lon="-3.886854">
        <ele>1471.083</ele>
        <time>2013-11-10T09:58:09Z</time>
      </trkpt>
      <trkpt lat="40.775112" lon="-3.886878">
        <ele>1471.265</ele>
        <time>2013-11-10T09:58:11Z</time>
      </trkpt>
      <trkpt lat="40.775111" lon="-3.886936">
        <ele>1471.619</ele>
        <time>2013-11-10T09:58:15Z</time>
      </trkpt>
      <trkpt lat="40.775107" lon="-3.887009">
        <ele>1472.409</ele>
        <time>2013-11-10T09:58:19Z</time>
      </trkpt>
      <trkpt lat="40.775097" lon="-3.887103">
        <ele>1473.419</ele>
        <time>2013-11-10T09:58:26Z</time>
      </trkpt>
      <trkpt lat="40.77509" lon="-3.887122">
        <ele>1473.407</ele>
        <time>2013-11-10T09:58:27Z</time>
      </trkpt>
      <trkpt lat="40.775084" lon="-3.887186">
        <ele>1473.886</ele>
        <time>2013-11-10T09:58:31Z</time>
      </trkpt>
      <trkpt lat="40.775076" lon="-3.887245">
        <ele>1474.697</ele>
        <time>2013-11-10T09:58:35Z</time>
      </trkpt>
      <trkpt lat="40.775059" lon="-3.88737">
        <ele>1475.622</ele>
        <time>2013-11-10T09:58:42Z</time>
      </trkpt>
      <trkpt lat="40.775047" lon="-3.887443">
        <ele>1476.085</ele>
        <time>2013-11-10T09:58:45Z</time>
      </trkpt>
      <trkpt lat="40.775053" lon="-3.887484">
        <ele>1476.47</ele>
        <time>2013-11-10T09:58:47Z</time>
      </trkpt>
      <trkpt lat="40.775053" lon="-3.887484">
        <ele>1477.298</ele>
        <time>2013-11-10T09:58:51Z</time>
      </trkpt>
      <trkpt lat="40.775036" lon="-3.887661">
        <ele>1477.85</ele>
        <time>2013-11-10T09:58:55Z</time>
      </trkpt>
      <trkpt lat="40.775037" lon="-3.887761">
        <ele>1479.082</ele>
        <time>2013-11-10T09:59:00Z</time>
      </trkpt>
      <trkpt lat="40.775046" lon="-3.887842">
        <ele>1479.843</ele>
        <time>2013-11-10T09:59:04Z</time>
      </trkpt>
      <trkpt lat="40.775038" lon="-3.887885">
        <ele>1480.417</ele>
        <time>2013-11-10T09:59:06Z</time>
      </trkpt>
      <trkpt lat="40.775033" lon="-3.887993">
        <ele>1481.607</ele>
        <time>2013-11-10T09:59:11Z</time>
      </trkpt>
      <trkpt lat="40.775018" lon="-3.888058">
        <ele>1482.643</ele>
        <time>2013-11-10T09:59:14Z</time>
      </trkpt>
      <trkpt lat="40.774988" lon="-3.888153">
        <ele>1483.624</ele>
        <time>2013-11-10T09:59:19Z</time>
      </trkpt>
      <trkpt lat="40.775002" lon="-3.888211">
        <ele>1485.229</ele>
        <time>2013-11-10T09:59:24Z</time>
      </trkpt>
      <trkpt lat="40.774995" lon="-3.888334">
        <ele>1486.052</ele>
        <time>2013-11-10T09:59:29Z</time>
      </trkpt>
      <trkpt lat="40.774984" lon="-3.888443">
        <ele>1486.647</ele>
        <time>2013-11-10T09:59:34Z</time>
      </trkpt>
      <trkpt lat="40.774971" lon="-3.888509">
        <ele>1487.055</ele>
        <time>2013-11-10T09:59:37Z</time>
      </trkpt>
      <trkpt lat="40.774962" lon="-3.888549">
        <ele>1487.487</ele>
        <time>2013-11-10T09:59:39Z</time>
      </trkpt>
      <trkpt lat="40.774948" lon="-3.888612">
        <ele>1488.278</ele>
        <time>2013-11-10T09:59:43Z</time>
      </trkpt>
      <trkpt lat="40.774941" lon="-3.888704">
        <ele>1488.633</ele>
        <time>2013-11-10T09:59:48Z</time>
      </trkpt>
      <trkpt lat="40.774939" lon="-3.888771">
        <ele>1488.826</ele>
        <time>2013-11-10T09:59:52Z</time>
      </trkpt>
      <trkpt lat="40.774938" lon="-3.888844">
        <ele>1489.607</ele>
        <time>2013-11-10T09:59:55Z</time>
      </trkpt>
      <trkpt lat="40.774934" lon="-3.888866">
        <ele>1489.882</ele>
        <time>2013-11-10T09:59:56Z</time>
      </trkpt>
      <trkpt lat="40.774889" lon="-3.88896">
        <ele>1490.483</ele>
        <time>2013-11-10T10:00:01Z</time>
      </trkpt>
      <trkpt lat="40.774876" lon="-3.888973">
        <ele>1490.818</ele>
        <time>2013-11-10T10:00:02Z</time>
      </trkpt>
      <trkpt lat="40.774799" lon="-3.889024">
        <ele>1492.011</ele>
        <time>2013-11-10T10:00:07Z</time>
      </trkpt>
      <trkpt lat="40.774681" lon="-3.889148">
        <ele>1493.816</ele>
        <time>2013-11-10T10:00:15Z</time>
      </trkpt>
      <trkpt lat="40.774673" lon="-3.88917">
        <ele>1494.064</ele>
        <time>2013-11-10T10:00:16Z</time>
      </trkpt>
      <trkpt lat="40.774674" lon="-3.889207">
        <ele>1494.436</ele>
        <time>2013-11-10T10:00:18Z</time>
      </trkpt>
      <trkpt lat="40.774726" lon="-3.889272">
        <ele>1495.689</ele>
        <time>2013-11-10T10:00:24Z</time>
      </trkpt>
      <trkpt lat="40.774727" lon="-3.889338">
        <ele>1496.406</ele>
        <time>2013-11-10T10:00:28Z</time>
      </trkpt>
      <trkpt lat="40.774713" lon="-3.889454">
        <ele>1497.626</ele>
        <time>2013-11-10T10:00:33Z</time>
      </trkpt>
      <trkpt lat="40.774725" lon="-3.889479">
        <ele>1498.007</ele>
        <time>2013-11-10T10:00:34Z</time>
      </trkpt>
      <trkpt lat="40.77474" lon="-3.889518">
        <ele>1498.233</ele>
        <time>2013-11-10T10:00:36Z</time>
      </trkpt>
      <trkpt lat="40.774741" lon="-3.889547">
        <ele>1498.674</ele>
        <time>2013-11-10T10:00:38Z</time>
      </trkpt>
      <trkpt lat="40.774775" lon="-3.889605">
        <ele>1499.419</ele>
        <time>2013-11-10T10:00:43Z</time>
      </trkpt>
      <trkpt lat="40.774803" lon="-3.889627">
        <ele>1499.852</ele>
        <time>2013-11-10T10:00:45Z</time>
      </trkpt>
      <trkpt lat="40.774848" lon="-3.889662">
        <ele>1500.247</ele>
        <time>2013-11-10T10:00:47Z</time>
      </trkpt>
      <trkpt lat="40.774877" lon="-3.889695">
        <ele>1500.895</ele>
        <time>2013-11-10T10:00:50Z</time>
      </trkpt>
      <trkpt lat="40.774877" lon="-3.889695">
        <ele>1501.267</ele>
        <time>2013-11-10T10:00:54Z</time>
      </trkpt>
      <trkpt lat="40.774971" lon="-3.889827">
        <ele>1502.438</ele>
        <time>2013-11-10T10:00:59Z</time>
      </trkpt>
      <trkpt lat="40.775019" lon="-3.889858">
        <ele>1503.07</ele>
        <time>2013-11-10T10:01:04Z</time>
      </trkpt>
      <trkpt lat="40.77505" lon="-3.889851">
        <ele>1503.417</ele>
        <time>2013-11-10T10:01:08Z</time>
      </trkpt>
      <trkpt lat="40.775069" lon="-3.88984">
        <ele>1503.607</ele>
        <time>2013-11-10T10:01:11Z</time>
      </trkpt>
      <trkpt lat="40.775076" lon="-3.889836">
        <ele>1503.888</ele>
        <time>2013-11-10T10:01:14Z</time>
      </trkpt>
      <trkpt lat="40.775109" lon="-3.889797">
        <ele>1503.899</ele>
        <time>2013-11-10T10:01:20Z</time>
      </trkpt>
      <trkpt lat="40.775145" lon="-3.889803">
        <ele>1504.454</ele>
        <time>2013-11-10T10:01:24Z</time>
      </trkpt>
      <trkpt lat="40.775177" lon="-3.889866">
        <ele>1505.237</ele>
        <time>2013-11-10T10:01:31Z</time>
      </trkpt>
      <trkpt lat="40.775194" lon="-3.889908">
        <ele>1505.612</ele>
        <time>2013-11-10T10:01:37Z</time>
      </trkpt>
      <trkpt lat="40.775194" lon="-3.889908">
        <ele>1505.86</ele>
        <time>2013-11-10T10:01:42Z</time>
      </trkpt>
      <trkpt lat="40.775254" lon="-3.889887">
        <ele>1505.882</ele>
        <time>2013-11-10T10:01:45Z</time>
      </trkpt>
      <trkpt lat="40.775261" lon="-3.889901">
        <ele>1506.055</ele>
        <time>2013-11-10T10:01:48Z</time>
      </trkpt>
      <trkpt lat="40.775308" lon="-3.889924">
        <ele>1506.007</ele>
        <time>2013-11-10T10:01:55Z</time>
      </trkpt>
      <trkpt lat="40.77535" lon="-3.889909">
        <ele>1506.217</ele>
        <time>2013-11-10T10:02:00Z</time>
      </trkpt>
      <trkpt lat="40.775376" lon="-3.889893">
        <ele>1506.807</ele>
        <time>2013-11-10T10:02:03Z</time>
      </trkpt>
      <trkpt lat="40.775404" lon="-3.889915">
        <ele>1507.29</ele>
        <time>2013-11-10T10:02:08Z</time>
      </trkpt>
      <trkpt lat="40.775441" lon="-3.889919">
        <ele>1507.661</ele>
        <time>2013-11-10T10:02:13Z</time>
      </trkpt>
      <trkpt lat="40.775482" lon="-3.889898">
        <ele>1508.696</ele>
        <time>2013-11-10T10:02:18Z</time>
      </trkpt>
      <trkpt lat="40.775489" lon="-3.889884">
        <ele>1508.869</ele>
        <time>2013-11-10T10:02:19Z</time>
      </trkpt>
      <trkpt lat="40.77552" lon="-3.889848">
        <ele>1509.264</ele>
        <time>2013-11-10T10:02:22Z</time>
      </trkpt>
      <trkpt lat="40.775534" lon="-3.889844">
        <ele>1509.482</ele>
        <time>2013-11-10T10:02:24Z</time>
      </trkpt>
      <trkpt lat="40.775579" lon="-3.889879">
        <ele>1510.294</ele>
        <time>2013-11-10T10:02:30Z</time>
      </trkpt>
      <trkpt lat="40.775587" lon="-3.889877">
        <ele>1510.436</ele>
        <time>2013-11-10T10:02:31Z</time>
      </trkpt>
      <trkpt lat="40.775609" lon="-3.889878">
        <ele>1510.817</ele>
        <time>2013-11-10T10:02:33Z</time>
      </trkpt>
      <trkpt lat="40.775648" lon="-3.889899">
        <ele>1511.618</ele>
        <time>2013-11-10T10:02:39Z</time>
      </trkpt>
      <trkpt lat="40.775682" lon="-3.889918">
        <ele>1512.607</ele>
        <time>2013-11-10T10:02:44Z</time>
      </trkpt>
      <trkpt lat="40.775708" lon="-3.889879">
        <ele>1513.468</ele>
        <time>2013-11-10T10:02:49Z</time>
      </trkpt>
      <trkpt lat="40.775741" lon="-3.889865">
        <ele>1514.659</ele>
        <time>2013-11-10T10:02:55Z</time>
      </trkpt>
      <trkpt lat="40.77575" lon="-3.889867">
        <ele>1514.864</ele>
        <time>2013-11-10T10:02:56Z</time>
      </trkpt>
      <trkpt lat="40.775758" lon="-3.889871">
        <ele>1515.067</ele>
        <time>2013-11-10T10:02:58Z</time>
      </trkpt>
      <trkpt lat="40.775815" lon="-3.889827">
        <ele>1515.632</ele>
        <time>2013-11-10T10:03:03Z</time>
      </trkpt>
      <trkpt lat="40.775825" lon="-3.889826">
        <ele>1515.82</ele>
        <time>2013-11-10T10:03:04Z</time>
      </trkpt>
      <trkpt lat="40.77584" lon="-3.889835">
        <ele>1515.812</ele>
        <time>2013-11-10T10:03:06Z</time>
      </trkpt>
      <trkpt lat="40.775886" lon="-3.889834">
        <ele>1516.446</ele>
        <time>2013-11-10T10:03:11Z</time>
      </trkpt>
      <trkpt lat="40.775904" lon="-3.889832">
        <ele>1516.888</ele>
        <time>2013-11-10T10:03:13Z</time>
      </trkpt>
      <trkpt lat="40.775957" lon="-3.889823">
        <ele>1517.616</ele>
        <time>2013-11-10T10:03:18Z</time>
      </trkpt>
      <trkpt lat="40.77599" lon="-3.889822">
        <ele>1518.007</ele>
        <time>2013-11-10T10:03:25Z</time>
      </trkpt>
      <trkpt lat="40.776003" lon="-3.889861">
        <ele>1518.879</ele>
        <time>2013-11-10T10:03:31Z</time>
      </trkpt>
      <trkpt lat="40.77599" lon="-3.889859">
        <ele>1519.68</ele>
        <time>2013-11-10T10:03:37Z</time>
      </trkpt>
      <trkpt lat="40.77599" lon="-3.889868">
        <ele>1521.455</ele>
        <time>2013-11-10T10:03:46Z</time>
      </trkpt>
      <trkpt lat="40.776041" lon="-3.889844">
        <ele>1521.848</ele>
        <time>2013-11-10T10:03:51Z</time>
      </trkpt>
      <trkpt lat="40.776047" lon="-3.889841">
        <ele>1521.833</ele>
        <time>2013-11-10T10:03:52Z</time>
      </trkpt>
      <trkpt lat="40.776077" lon="-3.889838">
        <ele>1522.881</ele>
        <time>2013-11-10T10:03:56Z</time>
      </trkpt>
      <trkpt lat="40.7761" lon="-3.889812">
        <ele>1523.823</ele>
        <time>2013-11-10T10:04:02Z</time>
      </trkpt>
      <trkpt lat="40.776112" lon="-3.889809">
        <ele>1523.819</ele>
        <time>2013-11-10T10:04:03Z</time>
      </trkpt>
      <trkpt lat="40.776148" lon="-3.889809">
        <ele>1524.209</ele>
        <time>2013-11-10T10:04:07Z</time>
      </trkpt>
      <trkpt lat="40.776189" lon="-3.889795">
        <ele>1524.419</ele>
        <time>2013-11-10T10:04:11Z</time>
      </trkpt>
      <trkpt lat="40.776222" lon="-3.889789">
        <ele>1525.407</ele>
        <time>2013-11-10T10:04:18Z</time>
      </trkpt>
      <trkpt lat="40.776256" lon="-3.889717">
        <ele>1526.266</ele>
        <time>2013-11-10T10:04:25Z</time>
      </trkpt>
      <trkpt lat="40.776264" lon="-3.88971">
        <ele>1526.247</ele>
        <time>2013-11-10T10:04:26Z</time>
      </trkpt>
      <trkpt lat="40.776304" lon="-3.889677">
        <ele>1526.862</ele>
        <time>2013-11-10T10:04:30Z</time>
      </trkpt>
      <trkpt lat="40.776342" lon="-3.889679">
        <ele>1527.625</ele>
        <time>2013-11-10T10:04:34Z</time>
      </trkpt>
      <trkpt lat="40.776375" lon="-3.889707">
        <ele>1528.46</ele>
        <time>2013-11-10T10:04:43Z</time>
      </trkpt>
      <trkpt lat="40.776414" lon="-3.88967">
        <ele>1528.868</ele>
        <time>2013-11-10T10:04:50Z</time>
      </trkpt>
      <trkpt lat="40.776445" lon="-3.889669">
        <ele>1528.84</ele>
        <time>2013-11-10T10:04:57Z</time>
      </trkpt>
      <trkpt lat="40.776471" lon="-3.889671">
        <ele>1529.054</ele>
        <time>2013-11-10T10:05:02Z</time>
      </trkpt>
      <trkpt lat="40.776482" lon="-3.889693">
        <ele>1529.056</ele>
        <time>2013-11-10T10:05:07Z</time>
      </trkpt>
      <trkpt lat="40.776473" lon="-3.889719">
        <ele>1529.011</ele>
        <time>2013-11-10T10:05:12Z</time>
      </trkpt>
      <trkpt lat="40.776485" lon="-3.889735">
        <ele>1529.607</ele>
        <time>2013-11-10T10:05:18Z</time>
      </trkpt>
      <trkpt lat="40.776479" lon="-3.889774">
        <ele>1530.25</ele>
        <time>2013-11-10T10:05:23Z</time>
      </trkpt>
      <trkpt lat="40.776461" lon="-3.889826">
        <ele>1530.621</ele>
        <time>2013-11-10T10:05:28Z</time>
      </trkpt>
      <trkpt lat="40.776443" lon="-3.889868">
        <ele>1531.276</ele>
        <time>2013-11-10T10:05:31Z</time>
      </trkpt>
      <trkpt lat="40.776422" lon="-3.8899">
        <ele>1531.839</ele>
        <time>2013-11-10T10:05:35Z</time>
      </trkpt>
      <trkpt lat="40.776405" lon="-3.889943">
        <ele>1532.494</ele>
        <time>2013-11-10T10:05:40Z</time>
      </trkpt>
      <trkpt lat="40.776405" lon="-3.889943">
        <ele>1532.832</ele>
        <time>2013-11-10T10:05:43Z</time>
      </trkpt>
      <trkpt lat="40.7764" lon="-3.890008">
        <ele>1533.694</ele>
        <time>2013-11-10T10:05:47Z</time>
      </trkpt>
      <trkpt lat="40.776424" lon="-3.890019">
        <ele>1534.416</ele>
        <time>2013-11-10T10:05:54Z</time>
      </trkpt>
      <trkpt lat="40.776415" lon="-3.890045">
        <ele>1534.676</ele>
        <time>2013-11-10T10:05:58Z</time>
      </trkpt>
      <trkpt lat="40.776402" lon="-3.890102">
        <ele>1535.813</ele>
        <time>2013-11-10T10:06:03Z</time>
      </trkpt>
      <trkpt lat="40.776421" lon="-3.890132">
        <ele>1536.407</ele>
        <time>2013-11-10T10:06:08Z</time>
      </trkpt>
      <trkpt lat="40.776468" lon="-3.890147">
        <ele>1537.876</ele>
        <time>2013-11-10T10:06:16Z</time>
      </trkpt>
      <trkpt lat="40.776499" lon="-3.890126">
        <ele>1538.457</ele>
        <time>2013-11-10T10:06:21Z</time>
      </trkpt>
      <trkpt lat="40.77651" lon="-3.890149">
        <ele>1539.632</ele>
        <time>2013-11-10T10:06:26Z</time>
      </trkpt>
      <trkpt lat="40.776514" lon="-3.890186">
        <ele>1540.415</ele>
        <time>2013-11-10T10:06:31Z</time>
      </trkpt>
      <trkpt lat="40.776505" lon="-3.890253">
        <ele>1540.82</ele>
        <time>2013-11-10T10:06:36Z</time>
      </trkpt>
      <trkpt lat="40.776541" lon="-3.89025">
        <ele>1542.038</ele>
        <time>2013-11-10T10:06:43Z</time>
      </trkpt>
      <trkpt lat="40.776566" lon="-3.890266">
        <ele>1542.61</ele>
        <time>2013-11-10T10:06:50Z</time>
      </trkpt>
      <trkpt lat="40.776585" lon="-3.890237">
        <ele>1543.036</ele>
        <time>2013-11-10T10:06:55Z</time>
      </trkpt>
      <trkpt lat="40.776612" lon="-3.890209">
        <ele>1543.217</ele>
        <time>2013-11-10T10:07:00Z</time>
      </trkpt>
      <trkpt lat="40.776623" lon="-3.890204">
        <ele>1543.418</ele>
        <time>2013-11-10T10:07:04Z</time>
      </trkpt>
      <trkpt lat="40.776626" lon="-3.890259">
        <ele>1544.807</ele>
        <time>2013-11-10T10:07:15Z</time>
      </trkpt>
      <trkpt lat="40.776641" lon="-3.890292">
        <ele>1545.218</ele>
        <time>2013-11-10T10:07:20Z</time>
      </trkpt>
      <trkpt lat="40.776653" lon="-3.890316">
        <ele>1546.239</ele>
        <time>2013-11-10T10:07:27Z</time>
      </trkpt>
      <trkpt lat="40.776645" lon="-3.890342">
        <ele>1551.014</ele>
        <time>2013-11-10T10:08:01Z</time>
      </trkpt>
      <trkpt lat="40.776644" lon="-3.890328">
        <ele>1551.097</ele>
        <time>2013-11-10T10:08:02Z</time>
      </trkpt>
      <trkpt lat="40.776661" lon="-3.890289">
        <ele>1551.472</ele>
        <time>2013-11-10T10:08:07Z</time>
      </trkpt>
      <trkpt lat="40.776675" lon="-3.890345">
        <ele>1551.42</ele>
        <time>2013-11-10T10:08:11Z</time>
      </trkpt>
      <trkpt lat="40.7767" lon="-3.890292">
        <ele>1553.472</ele>
        <time>2013-11-10T10:08:32Z</time>
      </trkpt>
      <trkpt lat="40.776718" lon="-3.890309">
        <ele>1553.659</ele>
        <time>2013-11-10T10:08:35Z</time>
      </trkpt>
      <trkpt lat="40.776771" lon="-3.890284">
        <ele>1553.603</ele>
        <time>2013-11-10T10:08:39Z</time>
      </trkpt>
      <trkpt lat="40.776773" lon="-3.890315">
        <ele>1553.823</ele>
        <time>2013-11-10T10:08:47Z</time>
      </trkpt>
      <trkpt lat="40.776814" lon="-3.89031">
        <ele>1553.807</ele>
        <time>2013-11-10T10:08:54Z</time>
      </trkpt>
      <trkpt lat="40.776829" lon="-3.890317">
        <ele>1554.08</ele>
        <time>2013-11-10T10:08:56Z</time>
      </trkpt>
      <trkpt lat="40.776885" lon="-3.890321">
        <ele>1555.011</ele>
        <time>2013-11-10T10:09:04Z</time>
      </trkpt>
      <trkpt lat="40.776934" lon="-3.890325">
        <ele>1556.076</ele>
        <time>2013-11-10T10:09:13Z</time>
      </trkpt>
      <trkpt lat="40.77693" lon="-3.890367">
        <ele>1557.689</ele>
        <time>2013-11-10T10:09:33Z</time>
      </trkpt>
      <trkpt lat="40.776937" lon="-3.890359">
        <ele>1558.614</ele>
        <time>2013-11-10T10:09:39Z</time>
      </trkpt>
      <trkpt lat="40.776916" lon="-3.890339">
        <ele>1559.462</ele>
        <time>2013-11-10T10:09:47Z</time>
      </trkpt>
      <trkpt lat="40.776912" lon="-3.8903">
        <ele>1560.414</ele>
        <time>2013-11-10T10:09:53Z</time>
      </trkpt>
      <trkpt lat="40.776932" lon="-3.89029">
        <ele>1562.232</ele>
        <time>2013-11-10T10:10:04Z</time>
      </trkpt>
      <trkpt lat="40.777003" lon="-3.890265">
        <ele>1563.092</ele>
        <time>2013-11-10T10:10:10Z</time>
      </trkpt>
      <trkpt lat="40.777081" lon="-3.890231">
        <ele>1563.611</ele>
        <time>2013-11-10T10:10:18Z</time>
      </trkpt>
      <trkpt lat="40.777103" lon="-3.890232">
        <ele>1563.807</ele>
        <time>2013-11-10T10:10:20Z</time>
      </trkpt>
      <trkpt lat="40.777198" lon="-3.890184">
        <ele>1565.068</ele>
        <time>2013-11-10T10:10:26Z</time>
      </trkpt>
      <trkpt lat="40.777185" lon="-3.890191">
        <ele>1565.479</ele>
        <time>2013-11-10T10:10:31Z</time>
      </trkpt>
      <trkpt lat="40.777173" lon="-3.890207">
        <ele>1566.874</ele>
        <time>2013-11-10T10:10:40Z</time>
      </trkpt>
      <trkpt lat="40.774442" lon="-3.889652">
        <ele>1514.799</ele>
        <time>2021-03-07T09:54:06Z</time>
      </trkpt>
      <trkpt lat="40.774666" lon="-3.889383">
        <ele>1509.618</ele>
        <time>2021-03-07T09:54:34Z</time>
      </trkpt>
      <trkpt lat="40.774752" lon="-3.889504">
        <ele>1509.209</ele>
        <time>2021-03-07T09:54:44Z</time>
      </trkpt>
      <trkpt lat="40.774845" lon="-3.889675">
        <ele>1509.821</ele>
        <time>2021-03-07T09:55:01Z</time>
      </trkpt>
      <trkpt lat="40.775344" lon="-3.889913">
        <ele>1514.378</ele>
        <time>2021-03-07T09:55:41Z</time>
      </trkpt>
      <trkpt lat="40.775677" lon="-3.889908">
        <ele>1524.554</ele>
        <time>2021-03-07T09:56:51Z</time>
      </trkpt>
      <trkpt lat="40.77593" lon="-3.889814">
        <ele>1529.663</ele>
        <time>2021-03-07T09:57:25Z</time>
      </trkpt>
      <trkpt lat="40.776237" lon="-3.889768">
        <ele>1541.373</ele>
        <time>2021-03-07T09:58:35Z</time>
      </trkpt>
      <trkpt lat="40.776314" lon="-3.889737">
        <ele>1545.623</ele>
        <time>2021-03-07T09:58:55Z</time>
      </trkpt>
      <trkpt lat="40.776438" lon="-3.88964">
        <ele>1551.883</ele>
        <time>2021-03-07T09:59:08Z</time>
      </trkpt>
      <trkpt lat="40.776515" lon="-3.889737">
        <ele>1559.261</ele>
        <time>2021-03-07T09:59:31Z</time>
      </trkpt>
      <trkpt lat="40.776454" lon="-3.89013">
        <ele>1559.923</ele>
        <time>2021-03-07T10:00:20Z</time>
      </trkpt>
      <trkpt lat="40.776525" lon="-3.890213">
        <ele>1565.132</ele>
        <time>2021-03-07T10:00:50Z</time>
      </trkpt>
      <trkpt lat="40.776563" lon="-3.89028">
        <ele>1568.052</ele>
        <time>2021-03-07T10:01:04Z</time>
      </trkpt>
      <trkpt lat="40.77665" lon="-3.890248">
        <ele>1572.892</ele>
        <time>2021-03-07T10:01:31Z</time>
      </trkpt>
      <trkpt lat="40.776666" lon="-3.890302">
        <ele>1574.113</ele>
        <time>2021-03-07T10:03:13Z</time>
      </trkpt>
      <trkpt lat="40.77689" lon="-3.890164">
        <ele>1590.652</ele>
        <time>2021-03-07T10:05:04Z</time>
      </trkpt>
      <trkpt lat="40.776816" lon="-3.89022">
        <ele>1584.883</ele>
        <time>2021-03-07T10:05:21Z</time>
      </trkpt>
      <trkpt lat="40.777088" lon="-3.890158">
        <ele>1592.324</ele>
        <time>2021-03-07T10:06:51Z</time>
      </trkpt>
      <trkpt lat="40.77721" lon="-3.890313">
        <ele>1593.156</ele>
        <time>2021-03-07T10:07:08Z</time>
      </trkpt>
      <trkpt lat="40.777274" lon="-3.890492">
        <ele>1601.872</ele>
        <time>2021-03-07T10:07:37Z</time>
      </trkpt>
      <trkpt lat="40.777267" lon="-3.890703">
        <ele>1607.51</ele>
        <time>2021-03-07T10:08:31Z</time>
      </trkpt>
      <trkpt lat="40.77735" lon="-3.89093">
        <ele>1617.514</ele>
        <time>2021-03-07T10:10:24Z</time>
      </trkpt>
      <trkpt lat="40.777482" lon="-3.89088">
        <ele>1623.91</ele>
        <time>2021-03-07T10:11:00Z</time>
      </trkpt>
      <trkpt lat="40.7776" lon="-3.890992">
        <ele>1634.387</ele>
        <time>2021-03-07T10:12:09Z</time>
      </trkpt>
      <trkpt lat="40.777664" lon="-3.891003">
        <ele>1639.445</ele>
        <time>2021-03-07T10:12:46Z</time>
      </trkpt>
      <trkpt lat="40.777683" lon="-3.891027">
        <ele>1641.708</ele>
        <time>2021-03-07T10:13:00Z</time>
      </trkpt>
      <trkpt lat="40.777725" lon="-3.89093">
        <ele>1641.032</ele>
        <time>2021-03-07T10:13:37Z</time>
      </trkpt>
      <trkpt lat="40.777846" lon="-3.891072">
        <ele>1656.79</ele>
        <time>2021-03-07T10:14:21Z</time>
      </trkpt>
      <trkpt lat="40.778006" lon="-3.890975">
        <ele>1664.757</ele>
        <time>2021-03-07T10:15:56Z</time>
      </trkpt>
      <trkpt lat="40.777776" lon="-3.891038">
        <ele>1649.486</ele>
        <time>2021-03-07T10:16:56Z</time>
      </trkpt>
      <trkpt lat="40.777744" lon="-3.890985">
        <ele>1644.615</ele>
        <time>2021-03-07T10:17:18Z</time>
      </trkpt>
      <trkpt lat="40.777667" lon="-3.891137">
        <ele>1644.282</ele>
        <time>2021-03-07T10:18:33Z</time>
      </trkpt>
      <trkpt lat="40.777603" lon="-3.890902">
        <ele>1631.908</ele>
        <time>2021-03-07T10:19:32Z</time>
      </trkpt>
      <trkpt lat="40.777504" lon="-3.891066">
        <ele>1628.567</ele>
        <time>2021-03-07T10:19:55Z</time>
      </trkpt>
      <trkpt lat="40.777389" lon="-3.891423">
        <ele>1629.311</ele>
        <time>2021-03-07T10:20:42Z</time>
      </trkpt>
      <trkpt lat="40.777536" lon="-3.891618">
        <ele>1645.421</ele>
        <time>2021-03-07T10:21:45Z</time>
      </trkpt>
      <trkpt lat="40.777565" lon="-3.891796">
        <ele>1652.199</ele>
        <time>2021-03-07T10:24:12Z</time>
      </trkpt>
      <trkpt lat="40.777667" lon="-3.891918">
        <ele>1664.726</ele>
        <time>2021-03-07T10:25:06Z</time>
      </trkpt>
      <trkpt lat="40.777725" lon="-3.892005">
        <ele>1670.527</ele>
        <time>2021-03-07T10:25:21Z</time>
      </trkpt>
      <trkpt lat="40.777802" lon="-3.892106">
        <ele>1676.658</ele>
        <time>2021-03-07T10:26:16Z</time>
      </trkpt>
      <trkpt lat="40.777696" lon="-3.892492">
        <ele>1671.562</ele>
        <time>2021-03-07T10:28:35Z</time>
      </trkpt>
      <trkpt lat="40.777846" lon="-3.892513">
        <ele>1681.539</ele>
        <time>2021-03-07T10:30:45Z</time>
      </trkpt>
      <trkpt lat="40.778122" lon="-3.8926">
        <ele>1704.347</ele>
        <time>2021-03-07T10:32:51Z</time>
      </trkpt>
      <trkpt lat="40.778317" lon="-3.892486">
        <ele>1716.008</ele>
        <time>2021-03-07T10:34:09Z</time>
      </trkpt>
      <trkpt lat="40.778461" lon="-3.892417">
        <ele>1726.285</ele>
        <time>2021-03-07T10:34:44Z</time>
      </trkpt>
      <trkpt lat="40.778522" lon="-3.892567">
        <ele>1735.668</ele>
        <time>2021-03-07T10:35:14Z</time>
      </trkpt>
      <trkpt lat="40.778608" lon="-3.892552">
        <ele>1741.314</ele>
        <time>2021-03-07T10:35:48Z</time>
      </trkpt>
      <trkpt lat="40.77865" lon="-3.892767">
        <ele>1759.55</ele>
        <time>2021-03-07T10:36:34Z</time>
      </trkpt>
      <trkpt lat="40.778986" lon="-3.892567">
        <ele>1766.65</ele>
        <time>2021-03-07T10:38:47Z</time>
      </trkpt>
      <trkpt lat="40.779072" lon="-3.89264">
        <ele>1775.831</ele>
        <time>2021-03-07T10:39:06Z</time>
      </trkpt>
      <trkpt lat="40.779456" lon="-3.89248">
        <ele>1773.341</ele>
        <time>2021-03-07T10:40:05Z</time>
      </trkpt>
      <trkpt lat="40.779526" lon="-3.892268">
        <ele>1764.441</ele>
        <time>2021-03-07T10:40:48Z</time>
      </trkpt>
      <trkpt lat="40.779677" lon="-3.892232">
        <ele>1764.926</ele>
        <time>2021-03-07T10:41:23Z</time>
      </trkpt>
      <trkpt lat="40.77984" lon="-3.89226">
        <ele>1763.017</ele>
        <time>2021-03-07T10:41:44Z</time>
      </trkpt>
      <trkpt lat="40.779987" lon="-3.892295">
        <ele>1757.589</ele>
        <time>2021-03-07T10:41:58Z</time>
      </trkpt>
      <trkpt lat="40.780381" lon="-3.89212">
        <ele>1760.218</ele>
        <time>2021-03-07T10:43:38Z</time>
      </trkpt>
      <trkpt lat="40.780906" lon="-3.89176">
        <ele>1762.373</ele>
        <time>2021-03-07T10:44:59Z</time>
      </trkpt>
      <trkpt lat="40.781152" lon="-3.891615">
        <ele>1764.899</ele>
        <time>2021-03-07T10:45:36Z</time>
      </trkpt>
      <trkpt lat="40.781459" lon="-3.891732">
        <ele>1765.119</ele>
        <time>2021-03-07T10:46:14Z</time>
      </trkpt>
      <trkpt lat="40.78169" lon="-3.891708">
        <ele>1767.319</ele>
        <time>2021-03-07T10:46:50Z</time>
      </trkpt>
      <trkpt lat="40.782048" lon="-3.891543">
        <ele>1768.258</ele>
        <time>2021-03-07T10:48:16Z</time>
      </trkpt>
      <trkpt lat="40.782614" lon="-3.891147">
        <ele>1767.541</ele>
        <time>2021-03-07T10:49:43Z</time>
      </trkpt>
      <trkpt lat="40.78279" lon="-3.89106">
        <ele>1766.425</ele>
        <time>2021-03-07T10:50:11Z</time>
      </trkpt>
      <trkpt lat="40.782883" lon="-3.89089">
        <ele>1773.946</ele>
        <time>2021-03-07T10:50:43Z</time>
      </trkpt>
      <trkpt lat="40.783197" lon="-3.890868">
        <ele>1769.834</ele>
        <time>2021-03-07T10:51:29Z</time>
      </trkpt>
      <trkpt lat="40.783427" lon="-3.890617">
        <ele>1776.748</ele>
        <time>2021-03-07T10:52:18Z</time>
      </trkpt>
      <trkpt lat="40.783494" lon="-3.890527">
        <ele>1778.757</ele>
        <time>2021-03-07T10:52:35Z</time>
      </trkpt>
      <trkpt lat="40.783936" lon="-3.890205">
        <ele>1784.993</ele>
        <time>2021-03-07T10:53:38Z</time>
      </trkpt>
      <trkpt lat="40.784061" lon="-3.890003">
        <ele>1792.86</ele>
        <time>2021-03-07T10:54:14Z</time>
      </trkpt>
      <trkpt lat="40.784474" lon="-3.890133">
        <ele>1793.714</ele>
        <time>2021-03-07T10:55:08Z</time>
      </trkpt>
      <trkpt lat="40.784554" lon="-3.890332">
        <ele>1788.236</ele>
        <time>2021-03-07T10:55:21Z</time>
      </trkpt>
      <trkpt lat="40.784966" lon="-3.890507">
        <ele>1789.816</ele>
        <time>2021-03-07T10:56:05Z</time>
      </trkpt>
      <trkpt lat="40.785034" lon="-3.890202">
        <ele>1800.677</ele>
        <time>2021-03-07T10:56:52Z</time>
      </trkpt>
      <trkpt lat="40.78552" lon="-3.889695">
        <ele>1821.728</ele>
        <time>2021-03-07T10:58:37Z</time>
      </trkpt>
      <trkpt lat="40.785754" lon="-3.889563">
        <ele>1826.857</ele>
        <time>2021-03-07T10:59:09Z</time>
      </trkpt>
      <trkpt lat="40.785789" lon="-3.889255">
        <ele>1833.905</ele>
        <time>2021-03-07T10:59:44Z</time>
      </trkpt>
      <trkpt lat="40.785872" lon="-3.889002">
        <ele>1840.955</ele>
        <time>2021-03-07T11:01:16Z</time>
      </trkpt>
      <trkpt lat="40.78648" lon="-3.886905">
        <ele>1878.272</ele>
        <time>2021-03-07T11:04:49Z</time>
      </trkpt>
      <trkpt lat="40.786822" lon="-3.88647">
        <ele>1882.414</ele>
        <time>2021-03-07T11:05:29Z</time>
      </trkpt>
      <trkpt lat="40.787069" lon="-3.88605">
        <ele>1884.922</ele>
        <time>2021-03-07T11:06:01Z</time>
      </trkpt>
      <trkpt lat="40.787398" lon="-3.88562">
        <ele>1888.953</ele>
        <time>2021-03-07T11:06:37Z</time>
      </trkpt>
      <trkpt lat="40.787789" lon="-3.884783">
        <ele>1886.831</ele>
        <time>2021-03-07T11:07:31Z</time>
      </trkpt>
      <trkpt lat="40.788333" lon="-3.883492">
        <ele>1884.656</ele>
        <time>2021-03-07T11:08:55Z</time>
      </trkpt>
      <trkpt lat="40.788598" lon="-3.882452">
        <ele>1896.563</ele>
        <time>2021-03-07T11:10:28Z</time>
      </trkpt>
      <trkpt lat="40.788963" lon="-3.881543">
        <ele>1916.695</ele>
        <time>2021-03-07T11:12:00Z</time>
      </trkpt>
      <trkpt lat="40.789386" lon="-3.880588">
        <ele>1933.113</ele>
        <time>2021-03-07T11:13:48Z</time>
      </trkpt>
      <trkpt lat="40.789584" lon="-3.879628">
        <ele>1946.382</ele>
        <time>2021-03-07T11:15:12Z</time>
      </trkpt>
      <trkpt lat="40.789677" lon="-3.879412">
        <ele>1947.91</ele>
        <time>2021-03-07T11:15:47Z</time>
      </trkpt>
      <trkpt lat="40.78944" lon="-3.87918">
        <ele>1958.068</ele>
        <time>2021-03-07T11:16:38Z</time>
      </trkpt>
      <trkpt lat="40.78951" lon="-3.878872">
        <ele>1961.689</ele>
        <time>2021-03-07T11:17:07Z</time>
      </trkpt>
      <trkpt lat="40.789373" lon="-3.878525">
        <ele>1973.008</ele>
        <time>2021-03-07T11:17:59Z</time>
      </trkpt>
      <trkpt lat="40.789478" lon="-3.878118">
        <ele>1977.96</ele>
        <time>2021-03-07T11:18:37Z</time>
      </trkpt>
      <trkpt lat="40.789635" lon="-3.877552">
        <ele>1985.05</ele>
        <time>2021-03-07T11:19:34Z</time>
      </trkpt>
      <trkpt lat="40.789616" lon="-3.877403">
        <ele>1988.372</ele>
        <time>2021-03-07T11:19:48Z</time>
      </trkpt>
      <trkpt lat="40.789325" lon="-3.87713">
        <ele>2007.608</ele>
        <time>2021-03-07T11:21:12Z</time>
      </trkpt>
      <trkpt lat="40.789682" lon="-3.876984">
        <ele>2004.63</ele>
      </trkpt>
      <trkpt lat="40.789578" lon="-3.877175">
        <ele>2017.508</ele>
      </trkpt>
      <trkpt lat="40.789343" lon="-3.877399">
        <ele>2016.983</ele>
      </trkpt>
      <trkpt lat="40.789217" lon="-3.877182">
        <ele>1999.758</ele>
      </trkpt>
      <trkpt lat="40.789168" lon="-3.877347">
        <ele>1992.922</ele>
      </trkpt>
      <trkpt lat="40.789213" lon="-3.877219">
        <ele>1986.031</ele>
      </trkpt>
      <trkpt lat="40.789278" lon="-3.877334">
        <ele>1981.99</ele>
      </trkpt>
      <trkpt lat="40.789229" lon="-3.877404">
        <ele>1980.123</ele>
      </trkpt>
      <trkpt lat="40.789641" lon="-3.877377">
        <ele>1983.013</ele>
      </trkpt>
      <trkpt lat="40.789816" lon="-3.876993">
        <ele>1982.069</ele>
      </trkpt>
      <trkpt lat="40.789902" lon="-3.876535">
        <ele>1966.646</ele>
      </trkpt>
      <trkpt lat="40.790161" lon="-3.876393">
        <ele>1958.997</ele>
      </trkpt>
      <trkpt lat="40.790587" lon="-3.87697">
        <ele>1956.312</ele>
      </trkpt>
      <trkpt lat="40.790672" lon="-3.876829">
        <ele>1959.66</ele>
      </trkpt>
      <trkpt lat="40.791286" lon="-3.876569">
        <ele>1978.349</ele>
      </trkpt>
      <trkpt lat="40.792004" lon="-3.876123">
        <ele>2011.161</ele>
      </trkpt>
      <trkpt lat="40.792252" lon="-3.875854">
        <ele>2022.236</ele>
      </trkpt>
      <trkpt lat="40.79248" lon="-3.87553">
        <ele>2026.56</ele>
      </trkpt>
      <trkpt lat="40.792953" lon="-3.875473">
        <ele>2033.986</ele>
      </trkpt>
      <trkpt lat="40.793181" lon="-3.875864">
        <ele>2045.445</ele>
      </trkpt>
      <trkpt lat="40.793371" lon="-3.87613">
        <ele>2046.826</ele>
      </trkpt>
      <trkpt lat="40.793866" lon="-3.876104">
        <ele>2059.547</ele>
      </trkpt>
      <trkpt lat="40.794708" lon="-3.876076">
        <ele>2076.013</ele>
      </trkpt>
      <trkpt lat="40.795102" lon="-3.875847">
        <ele>2077.008</ele>
      </trkpt>
      <trkpt lat="40.795523" lon="-3.876145">
        <ele>2084.189</ele>
      </trkpt>
      <trkpt lat="40.796405" lon="-3.875972">
        <ele>2084.656</ele>
      </trkpt>
      <trkpt lat="40.797214" lon="-3.876258">
        <ele>2079.557</ele>
      </trkpt>
      <trkpt lat="40.797534" lon="-3.876355">
        <ele>2079.924</ele>
      </trkpt>
      <trkpt lat="40.798352" lon="-3.876115">
        <ele>2087.579</ele>
      </trkpt>
      <trkpt lat="40.798854" lon="-3.87582">
        <ele>2097.431</ele>
      </trkpt>
      <trkpt lat="40.799189" lon="-3.875467">
        <ele>2100.957</ele>
      </trkpt>
      <trkpt lat="40.799898" lon="-3.874982">
        <ele>2111.644</ele>
      </trkpt>
      <trkpt lat="40.800128" lon="-3.874978">
        <ele>2115.741</ele>
      </trkpt>
      <trkpt lat="40.800422" lon="-3.874971">
        <ele>2122.087</ele>
      </trkpt>
      <trkpt lat="40.800951" lon="-3.875208">
        <ele>2125.957</ele>
      </trkpt>
      <trkpt lat="40.801231" lon="-3.875362">
        <ele>2133.708</ele>
      </trkpt>
      <trkpt lat="40.802003" lon="-3.875956">
        <ele>2145.946</ele>
      </trkpt>
      <trkpt lat="40.802244" lon="-3.876019">
        <ele>2154.715</ele>
      </trkpt>
      <trkpt lat="40.802979" lon="-3.876611">
        <ele>2183.144</ele>
      </trkpt>
      <trkpt lat="40.803201" lon="-3.876693">
        <ele>2182.731</ele>
      </trkpt>
      <trkpt lat="40.803361" lon="-3.876841">
        <ele>2183.098</ele>
      </trkpt>
      <trkpt lat="40.803426" lon="-3.876761">
        <ele>2182.569</ele>
      </trkpt>
      <trkpt lat="40.803834" lon="-3.87659">
        <ele>2187.419</ele>
      </trkpt>
      <trkpt lat="40.80417" lon="-3.876928">
        <ele>2196.078</ele>
      </trkpt>
      <trkpt lat="40.804173" lon="-3.877155">
        <ele>2198.942</ele>
      </trkpt>
      <trkpt lat="40.804822" lon="-3.879036">
        <ele>2208.485</ele>
      </trkpt>
      <trkpt lat="40.804957" lon="-3.87896">
        <ele>2207.576</ele>
      </trkpt>
      <trkpt lat="40.805242" lon="-3.879189">
        <ele>2204.931</ele>
      </trkpt>
      <trkpt lat="40.805526" lon="-3.880203">
        <ele>2207.926</ele>
      </trkpt>
      <trkpt lat="40.805463" lon="-3.88073">
        <ele>2207.191</ele>
      </trkpt>
      <trkpt lat="40.805965" lon="-3.882246">
        <ele>2234.956</ele>
      </trkpt>
      <trkpt lat="40.805903" lon="-3.882728">
        <ele>2226.924</ele>
      </trkpt>
      <trkpt lat="40.805875" lon="-3.882959">
        <ele>2227.845</ele>
      </trkpt>
      <trkpt lat="40.806107" lon="-3.883131">
        <ele>2228.352</ele>
      </trkpt>
      <trkpt lat="40.80658" lon="-3.883849">
        <ele>2221.532</ele>
      </trkpt>
      <trkpt lat="40.806819" lon="-3.883983">
        <ele>2212.269</ele>
      </trkpt>
      <trkpt lat="40.807052" lon="-3.884267">
        <ele>2211.347</ele>
      </trkpt>
      <trkpt lat="40.807353" lon="-3.884022">
        <ele>2209.527</ele>
      </trkpt>
      <trkpt lat="40.807918" lon="-3.88459">
        <ele>2191.708</ele>
      </trkpt>
      <trkpt lat="40.80824" lon="-3.884249">
        <ele>2176.384</ele>
      </trkpt>
      <trkpt lat="40.808623" lon="-3.884365">
        <ele>2166.327</ele>
      </trkpt>
      <trkpt lat="40.809152" lon="-3.884188">
        <ele>2144.926</ele>
      </trkpt>
      <trkpt lat="40.810002" lon="-3.883287">
        <ele>2104.416</ele>
      </trkpt>
      <trkpt lat="40.810121" lon="-3.883107">
        <ele>2100.084</ele>
      </trkpt>
      <trkpt lat="40.810413" lon="-3.882889">
        <ele>2091.576</ele>
      </trkpt>
      <trkpt lat="40.810668" lon="-3.882902">
        <ele>2087.973</ele>
      </trkpt>
      <trkpt lat="40.810946" lon="-3.883046">
        <ele>2084.67</ele>
      </trkpt>
      <trkpt lat="40.811144" lon="-3.883047">
        <ele>2076.996</ele>
      </trkpt>
      <trkpt lat="40.811413" lon="-3.882823">
        <ele>2071.808</ele>
      </trkpt>
      <trkpt lat="40.811874" lon="-3.882791">
        <ele>2058.278</ele>
      </trkpt>
      <trkpt lat="40.812009" lon="-3.882868">
        <ele>2050.908</ele>
      </trkpt>
      <trkpt lat="40.812281" lon="-3.882765">
        <ele>2051.157</ele>
      </trkpt>
      <trkpt lat="40.812965" lon="-3.882953">
        <ele>2029.712</ele>
      </trkpt>
      <trkpt lat="40.813251" lon="-3.883064">
        <ele>2018.423</ele>
      </trkpt>
      <trkpt lat="40.814582" lon="-3.882956">
        <ele>1989.008</ele>
      </trkpt>
      <trkpt lat="40.815036" lon="-3.88275">
        <ele>1978.811</ele>
      </trkpt>
      <trkpt lat="40.815679" lon="-3.882557">
        <ele>1958.576</ele>
      </trkpt>
      <trkpt lat="40.816245" lon="-3.882525">
        <ele>1947.345</ele>
      </trkpt>
      <trkpt lat="40.816918" lon="-3.882555">
        <ele>1937.353</ele>
      </trkpt>
      <trkpt lat="40.817423" lon="-3.882068">
        <ele>1928.361</ele>
      </trkpt>
      <trkpt lat="40.817796" lon="-3.881948">
        <ele>1917.768</ele>
      </trkpt>
      <trkpt lat="40.818158" lon="-3.881816">
        <ele>1911.908</ele>
      </trkpt>
      <trkpt lat="40.819175" lon="-3.881058">
        <ele>1884.408</ele>
      </trkpt>
      <trkpt lat="40.81965" lon="-3.880702">
        <ele>1878.446</ele>
      </trkpt>
      <trkpt lat="40.820004" lon="-3.880496">
        <ele>1872.089</ele>
      </trkpt>
      <trkpt lat="40.820265" lon="-3.88023">
        <ele>1862.276</ele>
      </trkpt>
      <trkpt lat="40.820633" lon="-3.879795">
        <ele>1853.626</ele>
      </trkpt>
      <trkpt lat="40.821305" lon="-3.878842">
        <ele>1836.027</ele>
      </trkpt>
      <trkpt lat="40.821667" lon="-3.87807">
        <ele>1824.496</ele>
      </trkpt>
      <trkpt lat="40.821825" lon="-3.877685">
        <ele>1818.674</ele>
      </trkpt>
      <trkpt lat="40.822162" lon="-3.877443">
        <ele>1812.007</ele>
      </trkpt>
      <trkpt lat="40.82261" lon="-3.876861">
        <ele>1808.668</ele>
      </trkpt>
      <trkpt lat="40.823134" lon="-3.876177">
        <ele>1792.947</ele>
      </trkpt>
      <trkpt lat="40.823442" lon="-3.875963">
        <ele>1776.426</ele>
      </trkpt>
      <trkpt lat="40.824221" lon="-3.875381">
        <ele>1752.359</ele>
      </trkpt>
      <trkpt lat="40.824922" lon="-3.875009">
        <ele>1751.773</ele>
      </trkpt>
      <trkpt lat="40.826002" lon="-3.875352">
        <ele>1734.758</ele>
      </trkpt>
      <trkpt lat="40.82606" lon="-3.875212">
        <ele>1730.617</ele>
      </trkpt>
      <trkpt lat="40.826378" lon="-3.875149">
        <ele>1717.071</ele>
      </trkpt>
      <trkpt lat="40.827148" lon="-3.874524">
        <ele>1712.399</ele>
      </trkpt>
      <trkpt lat="40.829306" lon="-3.872176">
        <ele>1681.577</ele>
      </trkpt>
      <trkpt lat="40.830818" lon="-3.870563">
        <ele>1674.96</ele>
      </trkpt>
      <trkpt lat="40.831894" lon="-3.87024">
        <ele>1673.865</ele>
      </trkpt>
      <trkpt lat="40.832338" lon="-3.870441">
        <ele>1668.684</ele>
      </trkpt>
      <trkpt lat="40.832448" lon="-3.870159">
        <ele>1665.666</ele>
      </trkpt>
      <trkpt lat="40.833976" lon="-3.870097">
        <ele>1660.067</ele>
      </trkpt>
      <trkpt lat="40.835191" lon="-3.870107">
        <ele>1652.224</ele>
      </trkpt>
      <trkpt lat="40.837436" lon="-3.870135">
        <ele>1645.619</ele>
      </trkpt>
      <trkpt lat="40.838123" lon="-3.870467">
        <ele>1637.816</ele>
      </trkpt>
      <trkpt lat="40.839916" lon="-3.871288">
        <ele>1617.441</ele>
      </trkpt>
      <trkpt lat="40.841736" lon="-3.872402">
        <ele>1602.253</ele>
      </trkpt>
      <trkpt lat="40.842535" lon="-3.8728">
        <ele>1603.785</ele>
      </trkpt>
      <trkpt lat="40.842478" lon="-3.872713">
        <ele>1602.436</ele>
      </trkpt>
      <trkpt lat="40.843036" lon="-3.871691">
        <ele>1592.316</ele>
      </trkpt>
      <trkpt lat="40.843272" lon="-3.871079">
        <ele>1585.408</ele>
      </trkpt>
      <trkpt lat="40.843757" lon="-3.869359">
        <ele>1553.333</ele>
      </trkpt>
      <trkpt lat="40.844029" lon="-3.868835">
        <ele>1533.317</ele>
      </trkpt>
      <trkpt lat="40.844304" lon="-3.868364">
        <ele>1528.266</ele>
      </trkpt>
      <trkpt lat="40.844513" lon="-3.868118">
        <ele>1525.769</ele>
      </trkpt>
      <trkpt lat="40.844329" lon="-3.866924">
        <ele>1513.329</ele>
      </trkpt>
      <trkpt lat="40.844179" lon="-3.866866">
        <ele>1510.657</ele>
      </trkpt>
      <trkpt lat="40.844214" lon="-3.866743">
        <ele>1508.738</ele>
      </trkpt>
      <trkpt lat="40.844173" lon="-3.866256">
        <ele>1509.008</ele>
      </trkpt>
      <trkpt lat="40.844325" lon="-3.865907">
        <ele>1499.697</ele>
      </trkpt>
      <trkpt lat="40.844647" lon="-3.865628">
        <ele>1495.517</ele>
      </trkpt>
      <trkpt lat="40.844742" lon="-3.865307">
        <ele>1478.864</ele>
      </trkpt>
      <trkpt lat="40.844752" lon="-3.864856">
        <ele>1468.311</ele>
      </trkpt>
      <trkpt lat="40.844725" lon="-3.864444">
        <ele>1468.145</ele>
      </trkpt>
      <trkpt lat="40.844779" lon="-3.864143">
        <ele>1467.26</ele>
      </trkpt>
      <trkpt lat="40.845039" lon="-3.863391">
        <ele>1438.808</ele>
      </trkpt>
      <trkpt lat="40.844919" lon="-3.86318">
        <ele>1442.292</ele>
      </trkpt>
      <trkpt lat="40.844963" lon="-3.86292">
        <ele>1444.044</ele>
      </trkpt>
      <trkpt lat="40.845279" lon="-3.862509">
        <ele>1431.221</ele>
      </trkpt>
      <trkpt lat="40.845829" lon="-3.862264">
        <ele>1425.852</ele>
      </trkpt>
      <trkpt lat="40.845767" lon="-3.862064">
        <ele>1425.791</ele>
      </trkpt>
      <trkpt lat="40.845906" lon="-3.861261">
        <ele>1429.218</ele>
      </trkpt>
      <trkpt lat="40.846117" lon="-3.860877">
        <ele>1429.69</ele>
      </trkpt>
      <trkpt lat="40.846716" lon="-3.860721">
        <ele>1418.727</ele>
      </trkpt>
      <trkpt lat="40.847152" lon="-3.860415">
        <ele>1409.248</ele>
      </trkpt>
      <trkpt lat="40.847551" lon="-3.860336">
        <ele>1402.639</ele>
      </trkpt>
      <trkpt lat="40.847657" lon="-3.860554">
        <ele>1401.158</ele>
      </trkpt>
      <trkpt lat="40.84769" lon="-3.86051">
        <ele>1401.163</ele>
      </trkpt>
      <trkpt lat="40.847697" lon="-3.860624">
        <ele>1399.992</ele>
      </trkpt>
      <trkpt lat="40.84801" lon="-3.860584">
        <ele>1399.208</ele>
      </trkpt>
      <trkpt lat="40.848273" lon="-3.859791">
        <ele>1395.117</ele>
      </trkpt>
      <trkpt lat="40.84847" lon="-3.859431">
        <ele>1403.847</ele>
      </trkpt>
      <trkpt lat="40.848487" lon="-3.859525">
        <ele>1402.219</ele>
      </trkpt>
      <trkpt lat="40.84887" lon="-3.85945">
        <ele>1411.897</ele>
      </trkpt>
      <trkpt lat="40.848954" lon="-3.859344">
        <ele>1417.656</ele>
      </trkpt>
      <trkpt lat="40.849213" lon="-3.859251">
        <ele>1430.447</ele>
      </trkpt>
      <trkpt lat="40.849488" lon="-3.859352">
        <ele>1431.136</ele>
      </trkpt>
      <trkpt lat="40.849861" lon="-3.85909">
        <ele>1405.485</ele>
      </trkpt>
      <trkpt lat="40.850103" lon="-3.859158">
        <ele>1391.672</ele>
      </trkpt>
      <trkpt lat="40.850056" lon="-3.859308">
        <ele>1386.514</ele>
      </trkpt>
      <trkpt lat="40.849933" lon="-3.859304">
        <ele>1382.688</ele>
      </trkpt>
      <trkpt lat="40.849863" lon="-3.85954">
        <ele>1377.12</ele>
      </trkpt>
      <trkpt lat="40.849597" lon="-3.859601">
        <ele>1376.442</ele>
      </trkpt>
      <trkpt lat="40.849475" lon="-3.859443">
        <ele>1382.65</ele>
      </trkpt>
      <trkpt lat="40.849229" lon="-3.859507">
        <ele>1389.047</ele>
      </trkpt>
      <trkpt lat="40.849325" lon="-3.859512">
        <ele>1389.408</ele>
      </trkpt>
      <trkpt lat="40.849775" lon="-3.859726">
        <ele>1389.527</ele>
      </trkpt>
      <trkpt lat="40.849985" lon="-3.859936">
        <ele>1380.374</ele>
      </trkpt>
      <trkpt lat="40.849964" lon="-3.859869">
        <ele>1377.833</ele>
      </trkpt>
      <trkpt lat="40.850098" lon="-3.859711">
        <ele>1373.395</ele>
      </trkpt>
      <trkpt lat="40.850065" lon="-3.860067">
        <ele>1362.115</ele>
      </trkpt>
      <trkpt lat="40.850188" lon="-3.860209">
        <ele>1361.133</ele>
      </trkpt>
      <trkpt lat="40.850016" lon="-3.861079">
        <ele>1347.226</ele>
      </trkpt>
      <trkpt lat="40.849782" lon="-3.860805">
        <ele>1350.421</ele>
      </trkpt>
      <trkpt lat="40.849703" lon="-3.860544">
        <ele>1350.966</ele>
      </trkpt>
      <trkpt lat="40.849474" lon="-3.860254">
        <ele>1350.225</ele>
      </trkpt>
      <trkpt lat="40.849538" lon="-3.860376">
        <ele>1355.316</ele>
      </trkpt>
      <trkpt lat="40.849482" lon="-3.860409">
        <ele>1347.355</ele>
      </trkpt>
      <trkpt lat="40.849569" lon="-3.860279">
        <ele>1341.665</ele>
      </trkpt>
      <trkpt lat="40.849513" lon="-3.860321">
        <ele>1344.243</ele>
      </trkpt>
      <trkpt lat="40.849531" lon="-3.860476">
        <ele>1347.655</ele>
      </trkpt>
      <trkpt lat="40.849535" lon="-3.860407">
        <ele>1346.034</ele>
      </trkpt>
      <trkpt lat="40.849668" lon="-3.860355">
        <ele>1343.934</ele>
      </trkpt>
      <trkpt lat="40.849573" lon="-3.860418">
        <ele>1345.177</ele>
      </trkpt>
      <trkpt lat="40.849669" lon="-3.8605">
        <ele>1344.965</ele>
      </trkpt>
      <trkpt lat="40.849866" lon="-3.860957">
        <ele>1340.315</ele>
      </trkpt>
      <trkpt lat="40.850068" lon="-3.861091">
        <ele>1337.86</ele>
      </trkpt>
      <trkpt lat="40.850115" lon="-3.861258">
        <ele>1336.183</ele>
      </trkpt>
      <trkpt lat="40.850268" lon="-3.86131">
        <ele>1334.586</ele>
      </trkpt>
      <trkpt lat="40.8505" lon="-3.861322">
        <ele>1330.043</ele>
      </trkpt>
      <trkpt lat="40.850935" lon="-3.861028">
        <ele>1328.426</ele>
      </trkpt>
      <trkpt lat="40.851263" lon="-3.860454">
        <ele>1321.241</ele>
      </trkpt>
      <trkpt lat="40.851946" lon="-3.859904">
        <ele>1310.611</ele>
      </trkpt>
      <trkpt lat="40.852721" lon="-3.859774">
        <ele>1314.218</ele>
      </trkpt>
      <trkpt lat="40.853174" lon="-3.859916">
        <ele>1309.008</ele>
      </trkpt>
      <trkpt lat="40.853308" lon="-3.859923">
        <ele>1307.817</ele>
      </trkpt>
      <trkpt lat="40.853522" lon="-3.860104">
        <ele>1299.574</ele>
      </trkpt>
      <trkpt lat="40.853812" lon="-3.860189">
        <ele>1301.341</ele>
      </trkpt>
      <trkpt lat="40.854678" lon="-3.860359">
        <ele>1300.21</ele>
      </trkpt>
      <trkpt lat="40.854976" lon="-3.860312">
        <ele>1296.06</ele>
      </trkpt>
      <trkpt lat="40.855352" lon="-3.86063">
        <ele>1300.641</ele>
      </trkpt>
      <trkpt lat="40.855435" lon="-3.860851">
        <ele>1297.172</ele>
      </trkpt>
      <trkpt lat="40.856148" lon="-3.861771">
        <ele>1289.163</ele>
      </trkpt>
      <trkpt lat="40.856622" lon="-3.861942">
        <ele>1282.658</ele>
      </trkpt>
      <trkpt lat="40.856992" lon="-3.862238">
        <ele>1276.954</ele>
      </trkpt>
      <trkpt lat="40.857327" lon="-3.86213">
        <ele>1282.514</ele>
      </trkpt>
      <trkpt lat="40.857575" lon="-3.8622">
        <ele>1277.176</ele>
      </trkpt>
      <trkpt lat="40.85785" lon="-3.862355">
        <ele>1278.408</ele>
      </trkpt>
      <trkpt lat="40.858165" lon="-3.863043">
        <ele>1271.208</ele>
      </trkpt>
      <trkpt lat="40.858541" lon="-3.863215">
        <ele>1270.531</ele>
      </trkpt>
      <trkpt lat="40.858808" lon="-3.863056">
        <ele>1272.157</ele>
      </trkpt>
      <trkpt lat="40.859252" lon="-3.863165">
        <ele>1272.217</ele>
      </trkpt>
      <trkpt lat="40.860219" lon="-3.863527">
        <ele>1260.855</ele>
      </trkpt>
      <trkpt lat="40.861506" lon="-3.863634">
        <ele>1267.076</ele>
      </trkpt>
      <trkpt lat="40.86232" lon="-3.86399">
        <ele>1265.108</ele>
      </trkpt>
      <trkpt lat="40.863127" lon="-3.864495">
        <ele>1257.34</ele>
      </trkpt>
      <trkpt lat="40.864172" lon="-3.864857">
        <ele>1244.613</ele>
      </trkpt>
      <trkpt lat="40.864429" lon="-3.865048">
        <ele>1244.727</ele>
      </trkpt>
      <trkpt lat="40.864421" lon="-3.865359">
        <ele>1242.203</ele>
      </trkpt>
      <trkpt lat="40.864337" lon="-3.865643">
        <ele>1240.645</ele>
      </trkpt>
      <trkpt lat="40.864987" lon="-3.866024">
        <ele>1239.257</ele>
      </trkpt>
      <trkpt lat="40.865362" lon="-3.866673">
        <ele>1237.341</ele>
      </trkpt>
      <trkpt lat="40.865488" lon="-3.867621">
        <ele>1232.979</ele>
      </trkpt>
      <trkpt lat="40.865584" lon="-3.868115">
        <ele>1232.036</ele>
      </trkpt>
      <trkpt lat="40.865792" lon="-3.868851">
        <ele>1229.634</ele>
      </trkpt>
      <trkpt lat="40.866022" lon="-3.869199">
        <ele>1224.989</ele>
      </trkpt>
      <trkpt lat="40.867216" lon="-3.869806">
        <ele>1211.753</ele>
      </trkpt>
      <trkpt lat="40.867813" lon="-3.870005">
        <ele>1211.112</ele>
      </trkpt>
      <trkpt lat="40.868626" lon="-3.871181">
        <ele>1206.521</ele>
      </trkpt>
      <trkpt lat="40.868998" lon="-3.871525">
        <ele>1211.108</ele>
      </trkpt>
      <trkpt lat="40.869563" lon="-3.872026">
        <ele>1201.117</ele>
      </trkpt>
      <trkpt lat="40.870161" lon="-3.872444">
        <ele>1191.341</ele>
      </trkpt>
      <trkpt lat="40.870876" lon="-3.873231">
        <ele>1195.85</ele>
      </trkpt>
      <trkpt lat="40.871551" lon="-3.873653">
        <ele>1191.759</ele>
      </trkpt>
      <trkpt lat="40.872738" lon="-3.874401">
        <ele>1193.722</ele>
      </trkpt>
      <trkpt lat="40.87319" lon="-3.874949">
        <ele>1192.626</ele>
      </trkpt>
      <trkpt lat="40.873502" lon="-3.875056">
        <ele>1188.143</ele>
      </trkpt>
      <trkpt lat="40.874513" lon="-3.875405">
        <ele>1182.726</ele>
      </trkpt>
      <trkpt lat="40.874946" lon="-3.875745">
        <ele>1181.203</ele>
      </trkpt>
      <trkpt lat="40.875738" lon="-3.87589">
        <ele>1181.74</ele>
      </trkpt>
      <trkpt lat="40.876898" lon="-3.875815">
        <ele>1180.983</ele>
      </trkpt>
      <trkpt lat="40.877382" lon="-3.875734">
        <ele>1173.118</ele>
      </trkpt>
      <trkpt lat="40.87779" lon="-3.875645">
        <ele>1170.978</ele>
      </trkpt>
      <trkpt lat="40.878392" lon="-3.875573">
        <ele>1171.414</ele>
      </trkpt>
      <trkpt lat="40.878924" lon="-3.876609">
        <ele>1170.645</ele>
      </trkpt>
      <trkpt lat="40.879344" lon="-3.877052">
        <ele>1167.004</ele>
      </trkpt>
      <trkpt lat="40.880435" lon="-3.877611">
        <ele>1162.405</ele>
      </trkpt>
      <trkpt lat="40.880798" lon="-3.877412">
        <ele>1160.711</ele>
      </trkpt>
      <trkpt lat="40.88151" lon="-3.877229">
        <ele>1164.389</ele>
      </trkpt>
      <trkpt lat="40.883146" lon="-3.877693">
        <ele>1156.461</ele>
      </trkpt>
      <trkpt lat="40.883847" lon="-3.877605">
        <ele>1160.382</ele>
      </trkpt>
      <trkpt lat="40.884265" lon="-3.877639">
        <ele>1156.042</ele>
      </trkpt>
      <trkpt lat="40.884852" lon="-3.877813">
        <ele>1156.938</ele>
      </trkpt>
      <trkpt lat="40.88518" lon="-3.877669">
        <ele>1157.108</ele>
      </trkpt>
      <trkpt lat="40.886186" lon="-3.877582">
        <ele>1154.673</ele>
      </trkpt>
      <trkpt lat="40.886626" lon="-3.877521">
        <ele>1157.281</ele>
      </trkpt>
      <trkpt lat="40.887317" lon="-3.877463">
        <ele>1154.923</ele>
      </trkpt>
      <trkpt lat="40.888593" lon="-3.877484">
        <ele>1143.288</ele>
      </trkpt>
      <trkpt lat="40.889128" lon="-3.877396">
        <ele>1145.836</ele>
      </trkpt>
      <trkpt lat="40.890923" lon="-3.877956">
        <ele>1142.466</ele>
      </trkpt>
      <trkpt lat="40.891914" lon="-3.878381">
        <ele>1146.108</ele>
      </trkpt>
      <trkpt lat="40.892485" lon="-3.879034">
        <ele>1129.616</ele>
      </trkpt>
      <trkpt lat="40.892827" lon="-3.879115">
        <ele>1125.384</ele>
      </trkpt>
      <trkpt lat="40.893242" lon="-3.8796">
        <ele>1124.169</ele>
      </trkpt>
      <trkpt lat="40.893342" lon="-3.880216">
        <ele>1132.444</ele>
      </trkpt>
      <trkpt lat="40.893564" lon="-3.880356">
        <ele>1132.199</ele>
      </trkpt>
      <trkpt lat="40.894334" lon="-3.879846">
        <ele>1129.884</ele>
      </trkpt>
      <trkpt lat="40.894736" lon="-3.879924">
        <ele>1129.308</ele>
      </trkpt>
      <trkpt lat="40.895605" lon="-3.880114">
        <ele>1126.732</ele>
      </trkpt>
      <trkpt lat="40.896774" lon="-3.880111">
        <ele>1128.442</ele>
      </trkpt>
      <trkpt lat="40.897739" lon="-3.880283">
        <ele>1132.424</ele>
      </trkpt>
      <trkpt lat="40.899144" lon="-3.880095">
        <ele>1135.708</ele>
      </trkpt>
      <trkpt lat="40.899944" lon="-3.879687">
        <ele>1134.235</ele>
      </trkpt>
      <trkpt lat="40.900509" lon="-3.879184">
        <ele>1136.984</ele>
      </trkpt>
    </trkseg>
  </trk>
</gpx>
